sensor_id;sensor_type;location;lat;lon;timestamp;temperature;humidity
19809;DHT22;48538;32.784;-96.802;2024-02-21T00:02:01;21.60;99.90
19809;DHT22;48538;32.784;-96.802;2024-02-21T00:04:27;21.50;99.90
19809;DHT22;48538;32.784;-96.802;2024-02-21T00:06:53;21.40;99.90
19809;DHT22;48538;32.784;-96.802;2024-02-21T00:09:20;21.40;99.90
19809;DHT22;48538;32.784;-96.802;2024-02-21T00:11:46;21.50;99.90
19809;DHT22;48538;32.784;-96.802;2024-02-21T00:14:13;21.50;99.90
19809;DHT22;48538;32.784;-96.802;2024-02-21T00:16:39;21.50;99.90
19809;DHT22;48538;32.784;-96.802;2024-02-21T00:19:06;21.40;99.90
19809;DHT22;48538;32.784;-96.802;2024-02-21T00:21:32;21.40;99.90
19809;DHT22;48538;32.784;-96.802;2024-02-21T00:23:58;21.40;99.90
19809;DHT22;48538;32.784;-96.802;2024-02-21T00:26:24;21.30;99.90
19809;DHT22;48538;32.784;-96.802;2024-02-21T00:28:51;21.30;99.90
19809;DHT22;48538;32.784;-96.802;2024-02-21T00:31:18;21.20;99.90
19809;DHT22;48538;32.784;-96.802;2024-02-21T00:33:44;21.20;99.90
19809;DHT22;48538;32.784;-96.802;2024-02-21T00:36:10;21.20;99.90
19809;DHT22;48538;32.784;-96.802;2024-02-21T00:38:36;21.10;99.90
19809;DHT22;48538;32.784;-96.802;2024-02-21T00:41:03;21.10;99.90
19809;DHT22;48538;32.784;-96.802;2024-02-21T00:43:29;21.10;99.90
19809;DHT22;48538;32.784;-96.802;2024-02-21T00:45:55;21.00;99.90
19809;DHT22;48538;32.784;-96.802;2024-02-21T00:48:22;20.90;99.90
19809;DHT22;48538;32.784;-96.802;2024-02-21T00:50:48;20.90;99.90
19809;DHT22;48538;32.784;-96.802;2024-02-21T00:53:14;20.90;99.90
19809;DHT22;48538;32.784;-96.802;2024-02-21T00:55:41;20.80;99.90
19809;DHT22;48538;32.784;-96.802;2024-02-21T00:58:09;20.80;99.90
19809;DHT22;48538;32.784;-96.802;2024-02-21T01:00:35;20.80;99.90
19809;DHT22;48538;32.784;-96.802;2024-02-21T01:03:02;20.80;99.90
19809;DHT22;48538;32.784;-96.802;2024-02-21T01:05:28;20.70;99.90
19809;DHT22;48538;32.784;-96.802;2024-02-21T01:07:55;20.70;99.90
19809;DHT22;48538;32.784;-96.802;2024-02-21T01:10:21;20.70;99.90
19809;DHT22;48538;32.784;-96.802;2024-02-21T01:12:48;20.70;99.90
19809;DHT22;48538;32.784;-96.802;2024-02-21T01:15:14;20.70;99.90
19809;DHT22;48538;32.784;-96.802;2024-02-21T01:17:41;20.60;99.90
19809;DHT22;48538;32.784;-96.802;2024-02-21T01:20:08;20.60;99.90
19809;DHT22;48538;32.784;-96.802;2024-02-21T01:22:34;20.60;99.90
19809;DHT22;48538;32.784;-96.802;2024-02-21T01:25:00;20.50;99.90
19809;DHT22;48538;32.784;-96.802;2024-02-21T01:27:27;20.50;99.90
19809;DHT22;48538;32.784;-96.802;2024-02-21T01:29:53;20.50;99.90
19809;DHT22;48538;32.784;-96.802;2024-02-21T01:32:19;20.50;99.90
19809;DHT22;48538;32.784;-96.802;2024-02-21T01:34:46;20.40;99.90
19809;DHT22;48538;32.784;-96.802;2024-02-21T01:37:12;20.40;99.90
19809;DHT22;48538;32.784;-96.802;2024-02-21T01:39:38;20.40;99.90
19809;DHT22;48538;32.784;-96.802;2024-02-21T01:42:04;20.40;99.90
19809;DHT22;48538;32.784;-96.802;2024-02-21T01:44:32;20.40;99.90
19809;DHT22;48538;32.784;-96.802;2024-02-21T01:46:58;20.40;99.90
19809;DHT22;48538;32.784;-96.802;2024-02-21T01:49:25;20.30;99.90
19809;DHT22;48538;32.784;-96.802;2024-02-21T01:51:51;20.30;99.90
19809;DHT22;48538;32.784;-96.802;2024-02-21T01:54:19;20.30;99.90
19809;DHT22;48538;32.784;-96.802;2024-02-21T01:56:46;20.30;99.90
19809;DHT22;48538;32.784;-96.802;2024-02-21T01:59:13;20.30;99.90
19809;DHT22;48538;32.784;-96.802;2024-02-21T02:01:42;20.20;99.90
19809;DHT22;48538;32.784;-96.802;2024-02-21T02:04:09;20.20;99.90
19809;DHT22;48538;32.784;-96.802;2024-02-21T02:06:35;20.20;99.90
19809;DHT22;48538;32.784;-96.802;2024-02-21T02:09:01;20.20;99.90
19809;DHT22;48538;32.784;-96.802;2024-02-21T02:11:28;20.20;99.90
19809;DHT22;48538;32.784;-96.802;2024-02-21T02:13:54;20.10;99.90
19809;DHT22;48538;32.784;-96.802;2024-02-21T02:16:23;20.10;99.90
19809;DHT22;48538;32.784;-96.802;2024-02-21T02:18:50;20.10;99.90
19809;DHT22;48538;32.784;-96.802;2024-02-21T02:21:32;20.10;99.90
19809;DHT22;48538;32.784;-96.802;2024-02-21T02:23:59;20.10;99.90
19809;DHT22;48538;32.784;-96.802;2024-02-21T02:26:25;20.10;99.90
19809;DHT22;48538;32.784;-96.802;2024-02-21T02:28:53;20.00;99.90
19809;DHT22;48538;32.784;-96.802;2024-02-21T02:31:19;20.00;99.90
19809;DHT22;48538;32.784;-96.802;2024-02-21T02:33:45;20.00;99.90
19809;DHT22;48538;32.784;-96.802;2024-02-21T02:36:12;20.00;99.90
19809;DHT22;48538;32.784;-96.802;2024-02-21T02:38:38;20.00;99.90
19809;DHT22;48538;32.784;-96.802;2024-02-21T02:41:04;19.90;99.90
19809;DHT22;48538;32.784;-96.802;2024-02-21T02:43:31;19.90;99.90
19809;DHT22;48538;32.784;-96.802;2024-02-21T02:45:57;19.90;99.90
19809;DHT22;48538;32.784;-96.802;2024-02-21T02:48:23;19.90;99.90
19809;DHT22;48538;32.784;-96.802;2024-02-21T02:50:50;19.90;99.90
19809;DHT22;48538;32.784;-96.802;2024-02-21T02:53:16;19.90;99.90
19809;DHT22;48538;32.784;-96.802;2024-02-21T02:55:42;19.90;99.90
19809;DHT22;48538;32.784;-96.802;2024-02-21T02:58:08;19.90;99.90
19809;DHT22;48538;32.784;-96.802;2024-02-21T03:00:35;19.90;99.90
19809;DHT22;48538;32.784;-96.802;2024-02-21T03:03:02;19.90;99.90
19809;DHT22;48538;32.784;-96.802;2024-02-21T03:05:31;19.80;99.90
19809;DHT22;48538;32.784;-96.802;2024-02-21T03:07:57;19.80;99.90
19809;DHT22;48538;32.784;-96.802;2024-02-21T03:10:25;19.80;99.90
19809;DHT22;48538;32.784;-96.802;2024-02-21T03:12:51;19.80;99.90
19809;DHT22;48538;32.784;-96.802;2024-02-21T03:15:19;19.70;99.90
19809;DHT22;48538;32.784;-96.802;2024-02-21T03:17:45;19.70;99.90
19809;DHT22;48538;32.784;-96.802;2024-02-21T03:20:12;19.70;99.90
19809;DHT22;48538;32.784;-96.802;2024-02-21T03:22:39;19.70;99.90
19809;DHT22;48538;32.784;-96.802;2024-02-21T03:25:06;19.60;99.90
19809;DHT22;48538;32.784;-96.802;2024-02-21T03:27:33;19.60;99.90
19809;DHT22;48538;32.784;-96.802;2024-02-21T03:29:59;19.60;99.90
19809;DHT22;48538;32.784;-96.802;2024-02-21T03:32:25;19.50;99.90
19809;DHT22;48538;32.784;-96.802;2024-02-21T03:34:53;19.50;99.90
19809;DHT22;48538;32.784;-96.802;2024-02-21T03:37:19;19.50;99.90
19809;DHT22;48538;32.784;-96.802;2024-02-21T03:39:46;19.50;99.90
19809;DHT22;48538;32.784;-96.802;2024-02-21T03:42:12;19.50;99.90
19809;DHT22;48538;32.784;-96.802;2024-02-21T03:44:39;19.50;99.90
19809;DHT22;48538;32.784;-96.802;2024-02-21T03:47:05;19.50;99.90
19809;DHT22;48538;32.784;-96.802;2024-02-21T03:49:31;19.40;99.90
19809;DHT22;48538;32.784;-96.802;2024-02-21T03:51:58;19.40;99.90
19809;DHT22;48538;32.784;-96.802;2024-02-21T03:54:24;19.40;99.90
19809;DHT22;48538;32.784;-96.802;2024-02-21T03:56:50;19.40;99.90
19809;DHT22;48538;32.784;-96.802;2024-02-21T03:59:17;19.40;99.90
19809;DHT22;48538;32.784;-96.802;2024-02-21T04:01:43;19.30;99.90
19809;DHT22;48538;32.784;-96.802;2024-02-21T04:04:10;19.30;99.90
19809;DHT22;48538;32.784;-96.802;2024-02-21T04:06:36;19.30;99.90
19809;DHT22;48538;32.784;-96.802;2024-02-21T04:09:03;19.20;99.90
19809;DHT22;48538;32.784;-96.802;2024-02-21T04:11:29;19.20;99.90
19809;DHT22;48538;32.784;-96.802;2024-02-21T04:13:55;19.20;99.90
19809;DHT22;48538;32.784;-96.802;2024-02-21T04:16:22;19.20;99.90
19809;DHT22;48538;32.784;-96.802;2024-02-21T04:18:48;19.20;99.90
19809;DHT22;48538;32.784;-96.802;2024-02-21T04:21:15;19.10;99.90
19809;DHT22;48538;32.784;-96.802;2024-02-21T04:23:42;19.10;99.90
19809;DHT22;48538;32.784;-96.802;2024-02-21T04:26:08;19.10;99.90
19809;DHT22;48538;32.784;-96.802;2024-02-21T04:28:35;19.10;99.90
19809;DHT22;48538;32.784;-96.802;2024-02-21T04:31:01;19.10;99.90
19809;DHT22;48538;32.784;-96.802;2024-02-21T04:33:27;19.10;99.90
19809;DHT22;48538;32.784;-96.802;2024-02-21T04:35:53;19.00;99.90
19809;DHT22;48538;32.784;-96.802;2024-02-21T04:38:21;19.00;99.90
19809;DHT22;48538;32.784;-96.802;2024-02-21T04:40:47;19.00;99.90
19809;DHT22;48538;32.784;-96.802;2024-02-21T04:43:13;19.00;99.90
19809;DHT22;48538;32.784;-96.802;2024-02-21T04:45:40;19.00;99.90
19809;DHT22;48538;32.784;-96.802;2024-02-21T04:48:06;19.00;99.90
19809;DHT22;48538;32.784;-96.802;2024-02-21T04:50:32;19.00;99.90
19809;DHT22;48538;32.784;-96.802;2024-02-21T04:52:59;19.00;99.90
19809;DHT22;48538;32.784;-96.802;2024-02-21T04:55:25;19.00;99.90
19809;DHT22;48538;32.784;-96.802;2024-02-21T04:57:51;18.90;99.90
19809;DHT22;48538;32.784;-96.802;2024-02-21T05:00:18;18.90;99.90
19809;DHT22;48538;32.784;-96.802;2024-02-21T05:02:44;18.90;99.90
19809;DHT22;48538;32.784;-96.802;2024-02-21T05:05:10;18.90;99.90
19809;DHT22;48538;32.784;-96.802;2024-02-21T05:07:37;18.90;99.90
19809;DHT22;48538;32.784;-96.802;2024-02-21T05:10:03;18.80;99.90
19809;DHT22;48538;32.784;-96.802;2024-02-21T05:12:30;18.80;99.90
19809;DHT22;48538;32.784;-96.802;2024-02-21T05:14:56;18.80;99.90
19809;DHT22;48538;32.784;-96.802;2024-02-21T05:17:22;18.80;99.90
19809;DHT22;48538;32.784;-96.802;2024-02-21T05:19:48;18.70;99.90
19809;DHT22;48538;32.784;-96.802;2024-02-21T05:22:15;18.70;99.90
19809;DHT22;48538;32.784;-96.802;2024-02-21T05:24:41;18.70;99.90
19809;DHT22;48538;32.784;-96.802;2024-02-21T05:27:07;18.70;99.90
19809;DHT22;48538;32.784;-96.802;2024-02-21T05:29:33;18.70;99.90
19809;DHT22;48538;32.784;-96.802;2024-02-21T05:32:00;18.70;99.90
19809;DHT22;48538;32.784;-96.802;2024-02-21T05:34:26;18.60;99.90
19809;DHT22;48538;32.784;-96.802;2024-02-21T05:36:53;18.60;99.90
19809;DHT22;48538;32.784;-96.802;2024-02-21T05:39:20;18.60;99.90
19809;DHT22;48538;32.784;-96.802;2024-02-21T05:41:48;18.60;99.90
19809;DHT22;48538;32.784;-96.802;2024-02-21T05:44:16;18.60;99.90
19809;DHT22;48538;32.784;-96.802;2024-02-21T05:46:42;18.60;99.90
19809;DHT22;48538;32.784;-96.802;2024-02-21T05:49:09;18.50;99.90
19809;DHT22;48538;32.784;-96.802;2024-02-21T05:51:35;18.50;99.90
19809;DHT22;48538;32.784;-96.802;2024-02-21T05:54:02;18.50;99.90
19809;DHT22;48538;32.784;-96.802;2024-02-21T05:56:28;18.50;99.90
19809;DHT22;48538;32.784;-96.802;2024-02-21T05:58:54;18.50;99.90
19809;DHT22;48538;32.784;-96.802;2024-02-21T06:01:21;18.50;99.90
19809;DHT22;48538;32.784;-96.802;2024-02-21T06:03:47;18.50;99.90
19809;DHT22;48538;32.784;-96.802;2024-02-21T06:06:13;18.40;99.90
19809;DHT22;48538;32.784;-96.802;2024-02-21T06:08:43;18.40;99.90
19809;DHT22;48538;32.784;-96.802;2024-02-21T06:11:09;18.40;99.90
19809;DHT22;48538;32.784;-96.802;2024-02-21T06:13:38;18.40;99.90
19809;DHT22;48538;32.784;-96.802;2024-02-21T06:16:06;18.40;99.90
19809;DHT22;48538;32.784;-96.802;2024-02-21T06:18:35;18.30;99.90
19809;DHT22;48538;32.784;-96.802;2024-02-21T06:21:02;18.30;99.90
19809;DHT22;48538;32.784;-96.802;2024-02-21T06:23:29;18.30;99.90
19809;DHT22;48538;32.784;-96.802;2024-02-21T06:25:55;18.30;99.90
19809;DHT22;48538;32.784;-96.802;2024-02-21T06:28:21;18.30;99.90
19809;DHT22;48538;32.784;-96.802;2024-02-21T06:30:48;18.30;99.90
19809;DHT22;48538;32.784;-96.802;2024-02-21T06:33:14;18.30;99.90
19809;DHT22;48538;32.784;-96.802;2024-02-21T06:35:40;18.30;99.90
19809;DHT22;48538;32.784;-96.802;2024-02-21T06:38:08;18.20;99.90
19809;DHT22;48538;32.784;-96.802;2024-02-21T06:40:34;18.20;99.90
19809;DHT22;48538;32.784;-96.802;2024-02-21T06:43:05;18.20;99.90
19809;DHT22;48538;32.784;-96.802;2024-02-21T06:45:31;18.10;99.90
19809;DHT22;48538;32.784;-96.802;2024-02-21T06:47:57;18.20;99.90
19809;DHT22;48538;32.784;-96.802;2024-02-21T06:50:24;18.10;99.90
19809;DHT22;48538;32.784;-96.802;2024-02-21T06:52:50;18.10;99.90
19809;DHT22;48538;32.784;-96.802;2024-02-21T06:55:16;18.10;99.90
19809;DHT22;48538;32.784;-96.802;2024-02-21T06:57:43;18.10;99.90
19809;DHT22;48538;32.784;-96.802;2024-02-21T07:00:09;18.10;99.90
19809;DHT22;48538;32.784;-96.802;2024-02-21T07:02:39;18.00;99.90
19809;DHT22;48538;32.784;-96.802;2024-02-21T07:05:05;18.10;99.90
19809;DHT22;48538;32.784;-96.802;2024-02-21T07:07:32;18.10;99.90
19809;DHT22;48538;32.784;-96.802;2024-02-21T07:09:58;18.00;99.90
19809;DHT22;48538;32.784;-96.802;2024-02-21T07:12:26;18.00;99.90
19809;DHT22;48538;32.784;-96.802;2024-02-21T07:14:52;18.00;99.90
19809;DHT22;48538;32.784;-96.802;2024-02-21T07:17:18;18.00;99.90
19809;DHT22;48538;32.784;-96.802;2024-02-21T07:19:44;18.00;99.90
19809;DHT22;48538;32.784;-96.802;2024-02-21T07:22:11;18.00;99.90
19809;DHT22;48538;32.784;-96.802;2024-02-21T07:24:37;17.90;99.90
19809;DHT22;48538;32.784;-96.802;2024-02-21T07:27:04;18.00;99.90
19809;DHT22;48538;32.784;-96.802;2024-02-21T07:29:30;18.00;99.90
19809;DHT22;48538;32.784;-96.802;2024-02-21T07:31:57;17.90;99.90
19809;DHT22;48538;32.784;-96.802;2024-02-21T07:34:23;17.90;99.90
19809;DHT22;48538;32.784;-96.802;2024-02-21T07:36:49;17.90;99.90
19809;DHT22;48538;32.784;-96.802;2024-02-21T07:39:16;17.90;99.90
19809;DHT22;48538;32.784;-96.802;2024-02-21T07:41:42;17.90;99.90
19809;DHT22;48538;32.784;-96.802;2024-02-21T07:44:10;17.90;99.90
19809;DHT22;48538;32.784;-96.802;2024-02-21T07:46:37;17.80;99.90
19809;DHT22;48538;32.784;-96.802;2024-02-21T07:49:03;17.90;99.90
19809;DHT22;48538;32.784;-96.802;2024-02-21T07:51:29;17.80;99.90
19809;DHT22;48538;32.784;-96.802;2024-02-21T07:53:55;17.90;99.90
19809;DHT22;48538;32.784;-96.802;2024-02-21T07:56:22;17.80;99.90
19809;DHT22;48538;32.784;-96.802;2024-02-21T07:58:48;17.80;99.90
19809;DHT22;48538;32.784;-96.802;2024-02-21T08:01:21;17.80;99.90
19809;DHT22;48538;32.784;-96.802;2024-02-21T08:03:47;17.80;99.90
19809;DHT22;48538;32.784;-96.802;2024-02-21T08:06:14;17.80;99.90
19809;DHT22;48538;32.784;-96.802;2024-02-21T08:08:40;17.80;99.90
19809;DHT22;48538;32.784;-96.802;2024-02-21T08:11:06;17.80;99.90
19809;DHT22;48538;32.784;-96.802;2024-02-21T08:13:33;17.70;99.90
19809;DHT22;48538;32.784;-96.802;2024-02-21T08:15:59;17.70;99.90
19809;DHT22;48538;32.784;-96.802;2024-02-21T08:18:25;17.70;99.90
19809;DHT22;48538;32.784;-96.802;2024-02-21T08:20:52;17.70;99.90
19809;DHT22;48538;32.784;-96.802;2024-02-21T08:23:19;17.70;99.90
19809;DHT22;48538;32.784;-96.802;2024-02-21T08:25:45;17.70;99.90
19809;DHT22;48538;32.784;-96.802;2024-02-21T08:28:12;17.70;99.90
19809;DHT22;48538;32.784;-96.802;2024-02-21T08:30:39;17.70;99.90
19809;DHT22;48538;32.784;-96.802;2024-02-21T08:33:05;17.70;99.90
19809;DHT22;48538;32.784;-96.802;2024-02-21T08:35:32;17.70;99.90
19809;DHT22;48538;32.784;-96.802;2024-02-21T08:37:58;17.70;99.90
19809;DHT22;48538;32.784;-96.802;2024-02-21T08:40:25;17.70;99.90
19809;DHT22;48538;32.784;-96.802;2024-02-21T08:42:51;17.60;99.90
19809;DHT22;48538;32.784;-96.802;2024-02-21T08:45:19;17.70;99.90
19809;DHT22;48538;32.784;-96.802;2024-02-21T08:47:45;17.70;99.90
19809;DHT22;48538;32.784;-96.802;2024-02-21T08:50:12;17.60;99.90
19809;DHT22;48538;32.784;-96.802;2024-02-21T08:52:38;17.60;99.90
19809;DHT22;48538;32.784;-96.802;2024-02-21T08:55:05;17.60;99.90
19809;DHT22;48538;32.784;-96.802;2024-02-21T08:57:32;17.60;99.90
19809;DHT22;48538;32.784;-96.802;2024-02-21T09:00:05;17.60;99.90
19809;DHT22;48538;32.784;-96.802;2024-02-21T09:02:40;17.50;99.90
19809;DHT22;48538;32.784;-96.802;2024-02-21T09:05:09;17.50;99.90
19809;DHT22;48538;32.784;-96.802;2024-02-21T09:07:35;17.50;99.90
19809;DHT22;48538;32.784;-96.802;2024-02-21T09:10:01;17.50;99.90
19809;DHT22;48538;32.784;-96.802;2024-02-21T09:12:28;17.50;99.90
19809;DHT22;48538;32.784;-96.802;2024-02-21T09:14:55;17.50;99.90
19809;DHT22;48538;32.784;-96.802;2024-02-21T09:17:21;17.40;99.90
19809;DHT22;48538;32.784;-96.802;2024-02-21T09:19:48;17.40;99.90
19809;DHT22;48538;32.784;-96.802;2024-02-21T09:22:14;17.50;99.90
19809;DHT22;48538;32.784;-96.802;2024-02-21T09:24:40;17.40;99.90
19809;DHT22;48538;32.784;-96.802;2024-02-21T09:27:07;17.40;99.90
19809;DHT22;48538;32.784;-96.802;2024-02-21T09:29:33;17.40;99.90
19809;DHT22;48538;32.784;-96.802;2024-02-21T09:31:59;17.40;99.90
19809;DHT22;48538;32.784;-96.802;2024-02-21T09:34:26;17.40;99.90
19809;DHT22;48538;32.784;-96.802;2024-02-21T09:36:53;17.40;99.90
19809;DHT22;48538;32.784;-96.802;2024-02-21T09:39:19;17.40;99.90
19809;DHT22;48538;32.784;-96.802;2024-02-21T09:41:50;17.40;99.90
19809;DHT22;48538;32.784;-96.802;2024-02-21T09:44:21;17.40;99.90
19809;DHT22;48538;32.784;-96.802;2024-02-21T09:49:34;17.30;99.90
19809;DHT22;48538;32.784;-96.802;2024-02-21T09:52:04;17.30;99.90
19809;DHT22;48538;32.784;-96.802;2024-02-21T09:54:33;17.30;99.90
19809;DHT22;48538;32.784;-96.802;2024-02-21T09:57:00;17.30;99.90
19809;DHT22;48538;32.784;-96.802;2024-02-21T09:59:32;17.30;99.90
19809;DHT22;48538;32.784;-96.802;2024-02-21T10:01:59;17.30;99.90
19809;DHT22;48538;32.784;-96.802;2024-02-21T10:04:26;17.30;99.90
19809;DHT22;48538;32.784;-96.802;2024-02-21T10:06:54;17.30;99.90
19809;DHT22;48538;32.784;-96.802;2024-02-21T10:09:22;17.20;99.90
19809;DHT22;48538;32.784;-96.802;2024-02-21T10:11:49;17.20;99.90
19809;DHT22;48538;32.784;-96.802;2024-02-21T10:14:16;17.20;99.90
19809;DHT22;48538;32.784;-96.802;2024-02-21T10:16:47;17.10;99.90
19809;DHT22;48538;32.784;-96.802;2024-02-21T10:19:20;17.20;99.90
19809;DHT22;48538;32.784;-96.802;2024-02-21T10:24:38;17.10;99.90
19809;DHT22;48538;32.784;-96.802;2024-02-21T10:27:07;17.10;99.90
19809;DHT22;48538;32.784;-96.802;2024-02-21T10:29:38;17.10;99.90
19809;DHT22;48538;32.784;-96.802;2024-02-21T10:32:12;17.10;99.90
19809;DHT22;48538;32.784;-96.802;2024-02-21T10:34:40;17.10;99.90
19809;DHT22;48538;32.784;-96.802;2024-02-21T10:37:10;17.10;99.90
19809;DHT22;48538;32.784;-96.802;2024-02-21T10:39:41;17.10;99.90
19809;DHT22;48538;32.784;-96.802;2024-02-21T10:42:11;17.10;99.90
19809;DHT22;48538;32.784;-96.802;2024-02-21T10:44:38;17.10;99.90
19809;DHT22;48538;32.784;-96.802;2024-02-21T10:47:10;17.10;99.90
19809;DHT22;48538;32.784;-96.802;2024-02-21T10:49:41;17.00;99.90
19809;DHT22;48538;32.784;-96.802;2024-02-21T10:52:15;17.00;99.90
19809;DHT22;48538;32.784;-96.802;2024-02-21T10:57:17;16.90;99.90
19809;DHT22;48538;32.784;-96.802;2024-02-21T10:59:45;16.90;99.90
19809;DHT22;48538;32.784;-96.802;2024-02-21T11:02:11;16.90;99.90
19809;DHT22;48538;32.784;-96.802;2024-02-21T11:04:38;16.90;99.90
19809;DHT22;48538;32.784;-96.802;2024-02-21T11:07:06;16.90;99.90
19809;DHT22;48538;32.784;-96.802;2024-02-21T11:09:33;16.90;99.90
19809;DHT22;48538;32.784;-96.802;2024-02-21T11:12:05;16.90;99.90
19809;DHT22;48538;32.784;-96.802;2024-02-21T11:14:32;16.90;99.90
19809;DHT22;48538;32.784;-96.802;2024-02-21T11:17:01;16.90;99.90
19809;DHT22;48538;32.784;-96.802;2024-02-21T11:19:30;16.80;99.90
19809;DHT22;48538;32.784;-96.802;2024-02-21T11:21:57;16.80;99.90
19809;DHT22;48538;32.784;-96.802;2024-02-21T11:24:31;16.80;99.90
19809;DHT22;48538;32.784;-96.802;2024-02-21T11:27:20;16.80;99.90
19809;DHT22;48538;32.784;-96.802;2024-02-21T11:29:47;16.80;99.90
19809;DHT22;48538;32.784;-96.802;2024-02-21T11:32:18;16.80;99.90
19809;DHT22;48538;32.784;-96.802;2024-02-21T11:35:03;16.80;99.90
19809;DHT22;48538;32.784;-96.802;2024-02-21T11:37:33;16.80;99.90
19809;DHT22;48538;32.784;-96.802;2024-02-21T11:40:00;16.70;99.90
19809;DHT22;48538;32.784;-96.802;2024-02-21T11:42:29;16.80;99.90
19809;DHT22;48538;32.784;-96.802;2024-02-21T11:45:00;16.70;99.90
19809;DHT22;48538;32.784;-96.802;2024-02-21T11:47:28;16.70;99.90
19809;DHT22;48538;32.784;-96.802;2024-02-21T11:49:55;16.70;99.90
19809;DHT22;48538;32.784;-96.802;2024-02-21T11:52:25;16.70;99.90
19809;DHT22;48538;32.784;-96.802;2024-02-21T11:54:52;16.70;99.90
19809;DHT22;48538;32.784;-96.802;2024-02-21T11:57:19;16.70;99.90
19809;DHT22;48538;32.784;-96.802;2024-02-21T11:59:46;16.60;99.90
19809;DHT22;48538;32.784;-96.802;2024-02-21T12:02:13;16.60;99.90
19809;DHT22;48538;32.784;-96.802;2024-02-21T12:04:40;16.60;99.90
19809;DHT22;48538;32.784;-96.802;2024-02-21T12:07:06;16.70;99.90
19809;DHT22;48538;32.784;-96.802;2024-02-21T12:09:34;16.60;99.90
19809;DHT22;48538;32.784;-96.802;2024-02-21T12:12:05;16.60;99.90
19809;DHT22;48538;32.784;-96.802;2024-02-21T12:14:33;16.50;99.90
19809;DHT22;48538;32.784;-96.802;2024-02-21T12:17:00;16.40;99.90
19809;DHT22;48538;32.784;-96.802;2024-02-21T12:19:29;16.40;99.90
19809;DHT22;48538;32.784;-96.802;2024-02-21T12:21:56;16.40;99.90
19809;DHT22;48538;32.784;-96.802;2024-02-21T12:24:24;16.30;99.90
19809;DHT22;48538;32.784;-96.802;2024-02-21T12:26:51;16.30;99.90
19809;DHT22;48538;32.784;-96.802;2024-02-21T12:29:24;16.30;99.90
19809;DHT22;48538;32.784;-96.802;2024-02-21T12:31:51;16.20;99.90
19809;DHT22;48538;32.784;-96.802;2024-02-21T12:34:17;16.20;99.90
19809;DHT22;48538;32.784;-96.802;2024-02-21T12:36:45;16.20;99.90
19809;DHT22;48538;32.784;-96.802;2024-02-21T12:39:14;16.20;99.90
19809;DHT22;48538;32.784;-96.802;2024-02-21T12:41:40;16.20;99.90
19809;DHT22;48538;32.784;-96.802;2024-02-21T12:44:08;16.20;99.90
19809;DHT22;48538;32.784;-96.802;2024-02-21T12:46:35;16.20;99.90
19809;DHT22;48538;32.784;-96.802;2024-02-21T12:49:02;16.20;99.90
19809;DHT22;48538;32.784;-96.802;2024-02-21T12:51:29;16.20;99.90
19809;DHT22;48538;32.784;-96.802;2024-02-21T12:53:56;16.20;99.90
19809;DHT22;48538;32.784;-96.802;2024-02-21T12:56:23;16.20;99.90
19809;DHT22;48538;32.784;-96.802;2024-02-21T12:58:50;16.30;99.90
19809;DHT22;48538;32.784;-96.802;2024-02-21T13:01:16;16.30;99.90
19809;DHT22;48538;32.784;-96.802;2024-02-21T13:03:43;16.30;99.90
19809;DHT22;48538;32.784;-96.802;2024-02-21T13:06:09;16.30;99.90
19809;DHT22;48538;32.784;-96.802;2024-02-21T13:08:36;16.30;99.90
19809;DHT22;48538;32.784;-96.802;2024-02-21T13:11:03;16.40;99.90
19809;DHT22;48538;32.784;-96.802;2024-02-21T13:13:30;16.40;99.90
19809;DHT22;48538;32.784;-96.802;2024-02-21T13:16:00;16.40;99.90
19809;DHT22;48538;32.784;-96.802;2024-02-21T13:18:26;16.40;99.90
19809;DHT22;48538;32.784;-96.802;2024-02-21T13:20:53;16.40;99.90
19809;DHT22;48538;32.784;-96.802;2024-02-21T13:23:19;16.50;99.90
19809;DHT22;48538;32.784;-96.802;2024-02-21T13:25:47;16.50;99.90
19809;DHT22;48538;32.784;-96.802;2024-02-21T13:28:15;16.50;99.90
19809;DHT22;48538;32.784;-96.802;2024-02-21T13:30:42;16.50;99.90
19809;DHT22;48538;32.784;-96.802;2024-02-21T13:33:09;16.60;99.90
19809;DHT22;48538;32.784;-96.802;2024-02-21T13:35:38;16.60;99.90
19809;DHT22;48538;32.784;-96.802;2024-02-21T13:38:04;16.60;99.90
19809;DHT22;48538;32.784;-96.802;2024-02-21T13:40:31;16.70;99.90
19809;DHT22;48538;32.784;-96.802;2024-02-21T13:42:57;16.70;99.90
19809;DHT22;48538;32.784;-96.802;2024-02-21T13:45:24;16.70;99.90
19809;DHT22;48538;32.784;-96.802;2024-02-21T13:47:50;16.70;99.90
19809;DHT22;48538;32.784;-96.802;2024-02-21T13:50:17;16.80;99.90
19809;DHT22;48538;32.784;-96.802;2024-02-21T13:52:44;16.80;99.90
19809;DHT22;48538;32.784;-96.802;2024-02-21T13:55:10;16.80;99.90
19809;DHT22;48538;32.784;-96.802;2024-02-21T13:57:37;16.90;99.90
19809;DHT22;48538;32.784;-96.802;2024-02-21T14:00:04;16.90;99.90
19809;DHT22;48538;32.784;-96.802;2024-02-21T14:02:30;16.90;99.90
19809;DHT22;48538;32.784;-96.802;2024-02-21T14:04:57;16.90;99.90
19809;DHT22;48538;32.784;-96.802;2024-02-21T14:07:23;17.00;99.90
19809;DHT22;48538;32.784;-96.802;2024-02-21T14:09:49;17.10;99.90
19809;DHT22;48538;32.784;-96.802;2024-02-21T14:12:16;17.00;99.90
19809;DHT22;48538;32.784;-96.802;2024-02-21T14:14:46;17.10;99.90
19809;DHT22;48538;32.784;-96.802;2024-02-21T14:17:12;17.10;99.90
19809;DHT22;48538;32.784;-96.802;2024-02-21T14:19:39;17.20;99.90
19809;DHT22;48538;32.784;-96.802;2024-02-21T14:22:05;17.20;99.90
19809;DHT22;48538;32.784;-96.802;2024-02-21T14:24:31;17.20;99.90
19809;DHT22;48538;32.784;-96.802;2024-02-21T14:26:58;17.20;99.90
19809;DHT22;48538;32.784;-96.802;2024-02-21T14:29:25;17.30;99.90
19809;DHT22;48538;32.784;-96.802;2024-02-21T14:31:51;17.40;99.90
19809;DHT22;48538;32.784;-96.802;2024-02-21T14:34:18;17.40;99.90
19809;DHT22;48538;32.784;-96.802;2024-02-21T14:36:44;17.50;99.90
19809;DHT22;48538;32.784;-96.802;2024-02-21T14:39:10;17.50;99.90
19809;DHT22;48538;32.784;-96.802;2024-02-21T14:41:37;17.60;99.90
19809;DHT22;48538;32.784;-96.802;2024-02-21T14:44:05;17.60;99.90
19809;DHT22;48538;32.784;-96.802;2024-02-21T14:46:32;17.60;99.90
19809;DHT22;48538;32.784;-96.802;2024-02-21T14:48:58;17.70;99.90
19809;DHT22;48538;32.784;-96.802;2024-02-21T14:51:24;17.80;99.90
19809;DHT22;48538;32.784;-96.802;2024-02-21T14:53:51;17.80;99.90
19809;DHT22;48538;32.784;-96.802;2024-02-21T14:56:20;17.80;99.90
19809;DHT22;48538;32.784;-96.802;2024-02-21T14:58:46;17.90;99.90
19809;DHT22;48538;32.784;-96.802;2024-02-21T15:01:13;18.00;99.90
19809;DHT22;48538;32.784;-96.802;2024-02-21T15:03:39;18.00;99.90
19809;DHT22;48538;32.784;-96.802;2024-02-21T15:06:05;18.10;99.90
19809;DHT22;48538;32.784;-96.802;2024-02-21T15:08:31;18.10;99.90
19809;DHT22;48538;32.784;-96.802;2024-02-21T15:10:58;18.10;99.90